createdAt,value
2018-03-24T00:00:43.780Z,50.50
2018-03-24T00:01:45.214Z,50.60
2018-03-24T00:02:46.586Z,50.60
2018-03-24T00:03:48.007Z,50.70
2018-03-24T00:04:49.398Z,50.80
2018-03-24T00:05:51.906Z,50.80
2018-03-24T00:07:56.472Z,50.70
2018-03-24T00:08:57.874Z,50.70
2018-03-24T00:09:59.259Z,50.80
2018-03-24T00:11:00.664Z,50.90
2018-03-24T00:12:02.055Z,50.90
2018-03-24T00:13:03.466Z,50.90
2018-03-24T00:14:05.606Z,50.90
2018-03-24T00:15:07.004Z,50.80
2018-03-24T00:16:08.506Z,50.90
2018-03-24T00:17:11.730Z,50.70
2018-03-24T00:19:17.713Z,50.50
2018-03-24T00:20:19.106Z,50.50
2018-03-24T00:22:23.910Z,50.60
2018-03-24T00:23:25.314Z,50.50
2018-03-24T00:24:27.819Z,50.50
2018-03-24T00:25:29.211Z,50.50
2018-03-24T00:26:30.606Z,50.40
2018-03-24T00:28:35.121Z,50.40
2018-03-24T00:29:36.533Z,50.40
2018-03-24T00:31:42.142Z,50.70
2018-03-24T00:32:43.859Z,50.60
2018-03-24T00:33:46.035Z,50.40
2018-03-24T00:34:48.189Z,50.70
2018-03-24T00:35:49.578Z,50.20
2018-03-24T00:36:50.962Z,50.50
2018-03-24T00:37:52.366Z,50.50
2018-03-24T00:38:53.766Z,50.50
2018-03-24T00:39:55.154Z,50.50
2018-03-24T00:40:56.542Z,50.40
2018-03-24T00:41:58.667Z,51.00
2018-03-24T00:43:00.366Z,50.50
2018-03-24T00:45:05.624Z,50.70
2018-03-24T00:46:08.161Z,50.70
2018-03-24T00:47:09.554Z,50.60
2018-03-24T00:48:11.658Z,50.50
2018-03-24T00:50:17.279Z,50.40
2018-03-24T00:51:18.682Z,50.50
2018-03-24T00:52:20.826Z,50.90
2018-03-24T00:53:22.238Z,50.40
2018-03-24T00:54:23.630Z,50.40
2018-03-24T00:56:28.878Z,50.90
2018-03-24T00:57:30.298Z,50.40
2018-03-24T00:58:32.749Z,51.00
2018-03-24T00:59:34.158Z,50.60
2018-03-24T01:00:35.566Z,50.50
2018-03-24T01:01:36.976Z,50.60
2018-03-24T01:02:39.106Z,50.90
2018-03-24T01:03:41.366Z,50.40
2018-03-24T01:04:42.755Z,50.20
2018-03-24T01:05:44.167Z,50.20
2018-03-24T01:06:45.568Z,50.20
2018-03-24T01:07:46.968Z,50.20
2018-03-24T01:09:51.489Z,50.10
2018-03-24T01:10:53.634Z,50.70
2018-03-24T01:11:55.028Z,50.20
2018-03-24T01:12:56.430Z,50.00
2018-03-24T01:14:42.777Z,49.80
2018-03-24T01:15:44.181Z,49.60
2018-03-24T01:16:45.590Z,49.40
2018-03-24T01:17:46.998Z,49.50
2018-03-24T01:18:48.391Z,49.20
2018-03-24T01:20:53.296Z,49.30
2018-03-24T01:24:00.902Z,49.40
2018-03-24T01:25:03.063Z,49.50
2018-03-24T01:26:05.586Z,49.70
2018-03-24T01:27:08.474Z,49.70
2018-03-24T01:28:57.578Z,50.20
2018-03-24T01:29:59.347Z,49.70
2018-03-24T01:31:00.762Z,49.70
2018-03-24T01:32:02.185Z,49.80
2018-03-24T01:33:03.614Z,49.90
2018-03-24T01:34:05.050Z,50.00
2018-03-24T01:35:07.187Z,50.50
2018-03-24T01:36:08.874Z,49.90
2018-03-24T01:37:53.864Z,50.10
2018-03-24T01:38:55.995Z,50.90
2018-03-24T01:39:58.134Z,50.60
2018-03-24T01:40:59.546Z,50.50
2018-03-24T01:42:01.232Z,50.60
2018-03-24T01:43:02.655Z,50.70
2018-03-24T01:44:04.042Z,50.70
2018-03-24T01:45:05.468Z,50.80
2018-03-24T01:46:06.882Z,50.60
2018-03-24T01:47:08.564Z,50.60
2018-03-24T01:48:09.950Z,50.50
2018-03-24T01:49:51.636Z,50.60
2018-03-24T01:50:53.022Z,50.60
2018-03-24T01:51:55.518Z,50.70
2018-03-24T01:52:58.414Z,50.60
2018-03-24T01:53:59.807Z,50.70
2018-03-24T01:55:01.211Z,50.70
2018-03-24T01:56:04.114Z,50.80
2018-03-24T01:57:05.522Z,50.70
2018-03-24T01:58:06.938Z,50.70
2018-03-24T01:59:09.070Z,51.40
2018-03-24T02:00:10.486Z,51.00
2018-03-24T02:01:11.958Z,51.10
2018-03-24T02:02:13.354Z,51.20
2018-03-24T02:03:16.534Z,51.40
2018-03-24T02:04:17.924Z,51.40
2018-03-24T02:05:19.315Z,51.50
2018-03-24T02:06:22.196Z,52.10
2018-03-24T02:07:23.593Z,51.70
2018-03-24T02:08:26.062Z,52.50
2018-03-24T02:09:27.462Z,52.00
2018-03-24T02:10:28.870Z,51.90
2018-03-24T02:11:30.259Z,51.90
2018-03-24T02:12:32.390Z,52.60
2018-03-24T02:13:34.062Z,52.20
2018-03-24T02:14:35.470Z,52.40
2018-03-24T02:15:37.622Z,52.30
2018-03-24T02:16:40.498Z,52.10
2018-03-24T02:17:41.951Z,52.00
2018-03-24T02:18:43.362Z,51.90
2018-03-24T02:19:45.546Z,51.90
2018-03-24T02:20:47.014Z,51.80
2018-03-24T02:21:48.443Z,51.70
2018-03-24T02:22:50.570Z,51.50
2018-03-24T02:23:52.358Z,51.30
2018-03-24T02:24:54.570Z,51.20
2018-03-24T02:25:56.006Z,51.30
2018-03-24T02:26:58.126Z,51.80
2018-03-24T02:27:59.510Z,51.30
2018-03-24T02:29:00.939Z,51.30
2018-03-24T02:30:03.124Z,51.20
2018-03-24T02:31:04.571Z,51.20
2018-03-24T02:32:05.974Z,51.20
2018-03-24T02:33:07.396Z,51.30
2018-03-24T02:35:12.578Z,51.60
2018-03-24T02:36:15.467Z,51.80
2018-03-24T02:37:17.963Z,51.90
2018-03-24T02:39:22.874Z,52.20
2018-03-24T02:40:24.281Z,52.20
2018-03-24T02:41:25.658Z,52.20
2018-03-24T02:42:27.795Z,53.40
2018-03-24T02:43:29.186Z,52.30
2018-03-24T02:44:30.607Z,52.30
2018-03-24T02:45:32.735Z,52.90
2018-03-24T02:46:34.134Z,52.30
2018-03-24T02:47:36.267Z,52.60
2018-03-24T02:49:41.712Z,51.90
2018-03-24T02:50:43.855Z,52.30
2018-03-24T02:51:45.234Z,51.70
2018-03-24T02:52:46.619Z,51.90
2018-03-24T02:53:48.022Z,51.80
2018-03-24T02:54:49.437Z,51.70
2018-03-24T02:55:50.832Z,51.70
2018-03-24T02:56:52.235Z,51.70
2018-03-24T02:57:53.643Z,51.70
2018-03-24T02:58:55.766Z,51.90
2018-03-24T02:59:57.185Z,51.90
2018-03-24T03:00:58.580Z,52.00
2018-03-24T03:02:00.718Z,52.50
2018-03-24T03:03:02.150Z,51.90
2018-03-24T03:04:03.598Z,51.80
2018-03-24T03:05:05.299Z,51.60
2018-03-24T03:06:06.690Z,51.70
2018-03-24T03:07:08.833Z,52.00
2018-03-24T03:08:11.198Z,51.60
2018-03-24T03:09:12.597Z,51.60
2018-03-24T03:11:18.123Z,52.00
2018-03-24T03:12:19.534Z,49.60
2018-03-24T03:13:22.031Z,51.20
2018-03-24T03:15:27.294Z,51.50
2018-03-24T03:16:29.430Z,51.60
2018-03-24T03:17:30.835Z,51.30
2018-03-24T03:18:32.964Z,51.70
2018-03-24T03:19:35.867Z,51.30
2018-03-24T03:20:37.306Z,51.30
2018-03-24T03:21:52.196Z,51.50
2018-03-24T03:22:53.599Z,51.50
2018-03-24T03:23:56.109Z,51.40
2018-03-24T03:24:57.490Z,51.40
2018-03-24T03:27:02.250Z,51.00
2018-03-24T03:28:03.736Z,51.10
2018-03-24T03:29:05.110Z,51.00
2018-03-24T03:30:07.275Z,51.50
2018-03-24T03:31:13.455Z,51.50
2018-03-24T03:32:19.567Z,51.60
2018-03-24T03:33:20.986Z,51.10
2018-03-24T03:34:23.510Z,51.20
2018-03-24T03:35:24.902Z,51.20
2018-03-24T03:36:26.572Z,51.20
2018-03-24T03:37:27.956Z,51.20
2018-03-24T03:38:30.472Z,51.30
2018-03-24T03:39:31.894Z,51.20
2018-03-24T03:40:33.302Z,51.20
2018-03-24T03:44:44.064Z,51.30
2018-03-24T03:45:46.588Z,51.40
2018-03-24T03:46:48.304Z,51.70
2018-03-24T03:47:49.702Z,51.50
2018-03-24T03:49:37.218Z,51.20
2018-03-24T03:50:38.622Z,51.20
2018-03-24T03:51:40.474Z,51.20
2018-03-24T03:54:15.342Z,50.90
2018-03-24T03:55:16.722Z,50.90
2018-03-24T03:56:18.868Z,51.20
2018-03-24T03:57:20.642Z,51.30
2018-03-24T03:58:22.794Z,51.70
2018-03-24T03:59:24.558Z,51.30
2018-03-24T04:00:25.959Z,51.40
2018-03-24T04:01:28.106Z,52.10
2018-03-24T04:02:29.489Z,51.80
2018-03-24T04:03:31.680Z,51.90
2018-03-24T04:04:33.045Z,51.90
2018-03-24T04:05:34.438Z,51.80
2018-03-24T04:06:35.830Z,51.90
2018-03-24T04:07:37.950Z,52.70
2018-03-24T04:08:39.353Z,52.20
2018-03-24T04:09:41.887Z,52.80
2018-03-24T04:10:43.270Z,52.30
2018-03-24T04:12:48.518Z,52.60
2018-03-24T04:13:49.905Z,52.10
2018-03-24T04:14:52.066Z,52.90
2018-03-24T04:17:53.738Z,52.50
2018-03-24T04:18:55.124Z,52.30
2018-03-24T04:19:56.847Z,52.30
2018-03-24T04:20:58.254Z,52.30
2018-03-24T04:22:00.390Z,52.20
2018-03-24T04:23:01.794Z,52.30
2018-03-24T04:24:04.029Z,52.70
2018-03-24T04:25:51.211Z,52.20
2018-03-24T04:26:54.082Z,52.40
2018-03-24T04:27:56.962Z,53.10
2018-03-24T04:28:58.358Z,52.50
2018-03-24T04:29:59.755Z,52.40
2018-03-24T04:31:34.033Z,52.30
2018-03-24T04:32:35.430Z,52.20
2018-03-24T04:33:37.942Z,52.20
2018-03-24T04:34:39.344Z,52.20
2018-03-24T04:35:42.294Z,52.80
2018-03-24T04:36:43.982Z,52.20
2018-03-24T04:37:46.494Z,52.20
2018-03-24T04:38:47.886Z,52.20
2018-03-24T04:39:49.264Z,52.20
2018-03-24T04:41:54.068Z,52.00
2018-03-24T04:42:55.470Z,51.90
2018-03-24T04:43:56.870Z,51.80
2018-03-24T04:44:58.273Z,51.80
2018-03-24T04:46:00.777Z,51.90
2018-03-24T04:47:02.265Z,51.70
2018-03-24T04:48:03.687Z,51.50
2018-03-24T04:49:38.724Z,51.50
2018-03-24T04:51:54.510Z,51.60
2018-03-24T04:52:55.910Z,51.70
2018-03-24T04:53:58.042Z,52.20
2018-03-24T04:54:59.458Z,51.90
2018-03-24T04:57:04.012Z,51.70
2018-03-24T04:58:06.164Z,52.20
2018-03-24T04:59:07.562Z,51.70
2018-03-24T05:00:08.972Z,51.90
2018-03-24T05:01:10.374Z,52.00
2018-03-24T05:02:11.930Z,52.20
2018-03-24T05:03:13.371Z,52.30
2018-03-24T05:04:14.774Z,52.40
2018-03-24T05:06:10.975Z,52.30
2018-03-24T05:07:12.370Z,52.50
2018-03-24T05:08:13.790Z,52.40
2018-03-24T05:09:16.023Z,52.30
2018-03-24T05:10:18.524Z,52.10
2018-03-24T05:11:19.914Z,52.10
2018-03-24T05:12:21.298Z,52.00
2018-03-24T05:14:26.538Z,53.10
2018-03-24T05:15:28.692Z,52.10
2018-03-24T05:16:30.091Z,52.10
2018-03-24T05:17:31.518Z,52.20
2018-03-24T05:19:28.753Z,52.10
2018-03-24T05:20:30.164Z,52.20
2018-03-24T05:21:31.568Z,52.20
2018-03-24T05:22:32.979Z,52.20
2018-03-24T05:23:34.382Z,52.20
2018-03-24T05:24:35.784Z,52.10
2018-03-24T05:25:37.218Z,52.10
2018-03-24T05:27:41.952Z,52.40
2018-03-24T05:28:43.342Z,52.20
2018-03-24T05:29:45.490Z,52.70
2018-03-24T05:30:46.883Z,52.10
2018-03-24T05:33:55.278Z,52.10
2018-03-24T05:34:56.710Z,52.00
2018-03-24T05:35:58.138Z,52.00
2018-03-24T05:38:02.768Z,52.00
2018-03-24T05:39:04.457Z,51.90
2018-03-24T05:42:03.841Z,51.90
2018-03-24T05:43:06.158Z,51.90
2018-03-24T05:44:07.774Z,52.10
2018-03-24T05:46:13.113Z,51.90
2018-03-24T05:48:08.873Z,51.90
2018-03-24T05:49:10.450Z,51.90
2018-03-24T05:50:12.033Z,52.30
2018-03-24T05:52:16.698Z,52.40
2018-03-24T05:53:18.240Z,52.50
2018-03-24T05:54:20.810Z,52.60
2018-03-24T05:55:22.380Z,52.50
2018-03-24T05:58:50.937Z,52.60
2018-03-24T05:59:53.340Z,52.80
2018-03-24T06:01:25.201Z,52.70
2018-03-24T06:02:58.403Z,52.80
2018-03-24T06:04:01.069Z,52.40
2018-03-24T06:05:02.628Z,52.30
2018-03-24T06:06:04.086Z,52.40
2018-03-24T06:07:05.497Z,52.40
2018-03-24T06:08:07.631Z,52.90
2018-03-24T06:09:09.031Z,52.40
2018-03-24T06:10:10.498Z,52.50
2018-03-24T06:11:11.966Z,52.50
2018-03-24T06:12:33.675Z,52.50
2018-03-24T06:13:35.122Z,52.50
2018-03-24T06:15:08.590Z,52.80
2018-03-24T06:17:13.298Z,53.00
2018-03-24T06:18:14.726Z,53.30
2018-03-24T06:19:16.154Z,53.00
2018-03-24T06:20:17.590Z,52.80
2018-03-24T06:21:19.010Z,52.50
2018-03-24T06:22:21.199Z,53.00
2018-03-24T06:23:22.645Z,52.50
2018-03-24T06:26:43.695Z,52.40
2018-03-24T06:27:45.471Z,52.60
2018-03-24T06:30:41.750Z,52.70
2018-03-24T06:35:18.182Z,52.90
2018-03-24T06:38:06.262Z,52.90
2018-03-24T06:39:07.630Z,52.80
2018-03-24T06:40:09.070Z,52.80
2018-03-24T06:41:10.486Z,52.80
2018-03-24T06:53:35.624Z,53.60
2018-03-24T06:54:38.146Z,54.10
2018-03-24T06:55:41.178Z,54.10
2018-03-24T06:56:42.589Z,54.10
2018-03-24T06:57:45.464Z,54.10
2018-03-24T06:58:47.982Z,54.10
2018-03-24T06:59:50.865Z,54.20
2018-03-24T07:00:52.287Z,54.20
2018-03-24T07:02:56.852Z,54.20
2018-03-24T07:05:01.406Z,54.20
2018-03-24T07:06:03.566Z,55.10
2018-03-24T07:07:04.964Z,54.20
2018-03-24T07:08:06.354Z,54.30
2018-03-24T07:09:09.134Z,54.80
2018-03-24T07:10:11.213Z,54.70
2018-03-24T07:11:12.639Z,54.50
2018-03-24T07:14:05.597Z,54.50
2018-03-24T07:15:06.993Z,54.50
2018-03-24T07:17:11.992Z,54.60
2018-03-24T07:19:16.490Z,54.10
2018-03-24T07:20:18.180Z,53.80
2018-03-24T07:22:22.864Z,54.20
2018-03-24T07:24:28.092Z,54.20
2018-03-24T07:26:32.614Z,54.00
2018-03-24T07:27:34.018Z,53.80
2018-03-24T07:28:35.415Z,53.90
2018-03-24T07:29:37.169Z,54.00
2018-03-24T07:31:42.060Z,53.60
2018-03-24T07:32:43.438Z,53.50
2018-03-24T07:33:44.848Z,53.20
2018-03-24T07:35:16.685Z,52.60
2018-03-24T07:37:21.210Z,52.40
2018-03-24T07:38:22.622Z,52.80
2018-03-24T07:39:24.026Z,53.40
2018-03-24T07:40:25.422Z,53.50
2018-03-24T07:41:26.830Z,53.60
2018-03-24T07:42:28.238Z,53.60
2018-03-24T07:43:29.608Z,53.50
2018-03-24T07:44:31.734Z,53.00
2018-03-24T07:46:37.375Z,52.00
2018-03-24T07:48:41.898Z,52.00
2018-03-24T07:49:43.284Z,52.10
2018-03-24T07:50:44.654Z,52.50
2018-03-24T07:51:46.798Z,51.90
2018-03-24T07:52:48.199Z,51.00
2018-03-24T07:53:50.708Z,50.80
2018-03-24T07:54:52.139Z,51.10
2018-03-24T07:55:54.281Z,51.30
2018-03-24T07:56:55.715Z,51.00
2018-03-24T07:57:57.123Z,50.10
2018-03-24T07:58:59.347Z,49.50
2018-03-24T08:01:03.974Z,49.60
2018-03-24T08:03:08.517Z,49.60
2018-03-24T08:05:13.669Z,49.30
2018-03-24T08:06:15.810Z,49.40
2018-03-24T08:07:17.220Z,49.40
2018-03-24T08:09:21.751Z,49.90
2018-03-24T08:10:23.197Z,49.30
2018-03-24T08:11:25.326Z,49.50
2018-03-24T08:12:26.725Z,49.80
2018-03-24T08:15:30.485Z,49.80
2018-03-24T08:16:31.943Z,50.20
2018-03-24T08:17:33.365Z,50.50
2018-03-24T08:18:35.136Z,49.90
2018-03-24T08:19:36.513Z,50.00
2018-03-24T08:20:37.905Z,50.50
2018-03-24T08:22:42.791Z,50.00
2018-03-24T08:23:45.291Z,50.10
2018-03-24T08:24:47.433Z,49.80
2018-03-24T08:25:48.835Z,48.80
2018-03-24T08:26:50.229Z,49.00
2018-03-24T08:27:52.780Z,50.60
2018-03-24T08:28:54.302Z,50.70
2018-03-24T08:29:55.718Z,50.70
2018-03-24T08:30:57.946Z,49.80
2018-03-24T08:32:00.475Z,49.30
2018-03-24T08:33:02.293Z,49.40
2018-03-24T08:34:03.783Z,49.30
2018-03-24T08:35:05.987Z,49.50
2018-03-24T08:36:07.419Z,49.80
2018-03-24T08:37:10.321Z,49.70
2018-03-24T08:38:11.974Z,49.90
2018-03-24T08:39:13.387Z,50.50
2018-03-24T08:42:09.231Z,51.10
2018-03-24T08:43:10.638Z,50.40
2018-03-24T08:55:35.417Z,53.00
2018-03-24T08:56:36.891Z,52.90
2018-03-24T08:57:38.359Z,52.80
2018-03-24T08:58:39.803Z,53.70
2018-03-24T08:59:41.465Z,53.60
2018-03-24T09:00:42.915Z,53.40
2018-03-24T09:01:45.093Z,53.60
2018-03-24T09:02:46.583Z,53.40
2018-03-24T09:03:48.068Z,53.70
2018-03-24T09:04:49.850Z,53.40
2018-03-24T09:05:52.422Z,53.10
2018-03-24T09:06:53.933Z,53.00
2018-03-24T09:07:55.357Z,53.10
2018-03-24T09:08:56.817Z,52.70
2018-03-24T09:09:59.286Z,53.10
2018-03-24T09:11:00.836Z,52.60
2018-03-24T09:12:02.275Z,52.40
2018-03-24T09:13:03.708Z,52.60
2018-03-24T09:14:05.231Z,52.30
2018-03-24T09:15:06.680Z,52.40
2018-03-24T09:16:08.139Z,52.20
2018-03-24T09:17:09.669Z,51.30
2018-03-24T09:18:11.550Z,51.30
2018-03-24T09:19:13.079Z,51.60
2018-03-24T09:20:15.367Z,52.20
2018-03-24T09:21:16.794Z,51.90
2018-03-24T09:22:19.026Z,52.40
2018-03-24T09:23:20.547Z,51.90
2018-03-24T09:24:22.179Z,51.90
2018-03-24T09:26:27.957Z,51.50
2018-03-24T09:27:30.515Z,50.50
2018-03-24T09:28:31.971Z,50.80
2018-03-24T09:30:36.562Z,50.60
2018-03-24T09:31:38.131Z,50.50
2018-03-24T09:33:43.059Z,50.30
2018-03-24T09:34:44.498Z,50.60
2018-03-24T09:35:46.233Z,50.40
2018-03-24T09:36:48.451Z,51.40
2018-03-24T09:37:49.883Z,50.90
2018-03-24T09:38:51.304Z,50.90
2018-03-24T09:39:53.479Z,51.80
2018-03-24T09:40:55.693Z,51.50
2018-03-24T09:41:57.199Z,50.90
2018-03-24T09:43:00.186Z,50.60
2018-03-24T09:44:02.436Z,50.20
2018-03-24T09:45:03.957Z,50.20
2018-03-24T09:46:06.017Z,50.70
2018-03-24T09:47:07.460Z,50.10
2018-03-24T09:48:09.036Z,49.90
2018-03-24T09:49:10.489Z,50.00
2018-03-24T09:50:12.026Z,49.90
2018-03-24T09:51:13.469Z,49.80
2018-03-24T09:52:14.901Z,50.20
2018-03-24T09:53:17.049Z,50.70
2018-03-24T09:54:18.507Z,50.10
2018-03-24T09:55:20.673Z,49.50
2018-03-24T09:56:22.123Z,49.70
2018-03-24T09:58:27.403Z,50.50
2018-03-24T09:59:28.871Z,50.00
2018-03-24T10:00:30.280Z,49.70
2018-03-24T10:01:31.706Z,49.80
2018-03-24T10:02:33.139Z,49.80
2018-03-24T10:03:34.562Z,49.90
2018-03-24T10:04:36.709Z,50.30
2018-03-24T10:05:38.852Z,50.30
2018-03-24T10:06:41.157Z,50.70
2018-03-24T10:07:42.597Z,50.30
2018-03-24T10:08:44.006Z,50.00
2018-03-24T10:09:46.192Z,50.10
2018-03-24T10:10:47.613Z,49.80
2018-03-24T10:11:49.042Z,50.00
2018-03-24T10:12:51.250Z,50.00
2018-03-24T10:13:53.391Z,50.80
2018-03-24T10:14:54.767Z,50.10
2018-03-24T10:18:02.449Z,50.00
2018-03-24T10:19:03.879Z,50.80
2018-03-24T10:20:05.352Z,50.70
2018-03-24T10:23:44.107Z,49.90
2018-03-24T10:24:45.585Z,49.40
2018-03-24T10:26:50.123Z,48.50
2018-03-24T10:27:53.173Z,48.10
2018-03-24T10:33:48.769Z,48.30
2018-03-24T10:34:56.451Z,48.50
2018-03-24T10:37:39.519Z,49.40
2018-03-24T10:38:40.981Z,48.10
2018-03-24T10:39:42.407Z,48.30
2018-03-24T10:40:43.825Z,48.80
2018-03-24T10:41:45.245Z,48.90
2018-03-24T10:43:55.939Z,48.70
2018-03-24T10:44:57.363Z,48.40
2018-03-24T10:45:58.799Z,48.60
2018-03-24T10:47:00.227Z,49.20
2018-03-24T10:48:02.381Z,49.20
2018-03-24T10:49:05.330Z,49.30
2018-03-24T10:50:06.803Z,49.10
2018-03-24T10:51:08.209Z,47.40
2018-03-24T10:53:17.097Z,47.90
2018-03-24T10:54:18.689Z,47.90
2018-03-24T10:55:21.207Z,48.10
2018-03-24T10:57:25.821Z,47.50
2018-03-24T10:58:28.103Z,48.00
2018-03-24T10:59:30.270Z,47.20
2018-03-24T11:00:31.724Z,47.20
2018-03-24T11:01:33.927Z,48.00
2018-03-24T11:02:36.075Z,47.20
2018-03-24T11:03:38.651Z,46.40
2018-03-24T11:06:23.837Z,47.30
2018-03-24T11:08:28.592Z,47.90
2018-03-24T11:09:29.997Z,47.70
2018-03-24T11:10:31.427Z,47.90
2018-03-24T11:11:32.872Z,47.80
2018-03-24T11:13:38.239Z,48.60
2018-03-24T11:14:39.743Z,48.20
2018-03-24T11:15:41.947Z,48.20
2018-03-24T11:16:43.441Z,47.70
2018-03-24T11:17:44.928Z,47.40
2018-03-24T11:18:47.644Z,47.20
2018-03-24T11:19:50.339Z,47.50
2018-03-24T11:20:51.792Z,47.80
2018-03-24T11:21:53.579Z,47.80
2018-03-24T11:22:54.986Z,47.80
2018-03-24T11:24:42.707Z,47.50
2018-03-24T11:25:45.611Z,47.80
2018-03-24T11:27:50.171Z,47.90
2018-03-24T11:28:51.635Z,47.90
2018-03-24T11:29:53.054Z,47.90
2018-03-24T11:30:55.196Z,48.60
2018-03-24T11:31:56.606Z,48.30
2018-03-24T11:32:58.106Z,48.00
2018-03-24T11:33:59.483Z,48.10
2018-03-24T11:35:01.640Z,48.50
2018-03-24T11:36:03.820Z,49.00
2018-03-24T11:37:06.350Z,48.20
2018-03-24T11:38:07.779Z,48.40
2018-03-24T11:39:09.931Z,47.90
2018-03-24T11:40:11.592Z,48.00
2018-03-24T11:41:13.946Z,49.20
2018-03-24T11:42:16.123Z,50.10
2018-03-24T11:43:18.313Z,48.80
2018-03-24T11:45:23.253Z,48.80
2018-03-24T11:46:25.772Z,49.10
2018-03-24T11:47:27.181Z,49.20
2018-03-24T11:49:31.708Z,48.40
2018-03-24T11:50:33.127Z,49.00
2018-03-24T11:52:20.325Z,49.00
2018-03-24T11:54:45.301Z,48.90
2018-03-24T11:55:46.706Z,47.70
2018-03-24T11:56:48.111Z,47.90
2018-03-24T11:57:49.513Z,47.40
2018-03-24T11:58:51.738Z,47.80
2018-03-24T12:07:00.539Z,46.10
2018-03-24T12:08:01.939Z,46.40
2018-03-24T12:09:03.402Z,47.10
2018-03-24T12:10:04.836Z,46.50
2018-03-24T12:11:06.227Z,46.40
2018-03-24T12:12:07.645Z,46.70
2018-03-24T12:13:09.097Z,47.10
2018-03-24T12:14:10.506Z,46.60
2018-03-24T12:15:11.914Z,46.50
2018-03-24T12:16:13.341Z,46.70
2018-03-24T12:17:15.151Z,46.30
2018-03-24T12:18:16.573Z,46.70
2018-03-24T12:19:17.971Z,47.30
2018-03-24T12:20:19.375Z,47.10
2018-03-24T12:21:20.763Z,47.60
2018-03-24T12:22:22.559Z,46.80
2018-03-24T12:24:27.103Z,46.70
2018-03-24T12:25:28.519Z,46.60
2018-03-24T12:26:29.930Z,45.60
2018-03-24T12:27:31.385Z,45.10
2018-03-24T12:28:33.547Z,44.50
2018-03-24T12:29:34.967Z,44.70
2018-03-24T12:30:36.369Z,45.20
2018-03-24T12:31:38.547Z,44.90
2018-03-24T12:33:43.185Z,44.80
2018-03-24T12:34:44.599Z,45.10
2018-03-24T12:36:49.877Z,44.90
2018-03-24T12:40:22.669Z,44.60
2018-03-24T12:42:27.205Z,45.00
2018-03-24T12:43:30.108Z,44.50
2018-03-24T12:44:32.613Z,44.60
2018-03-24T12:45:35.139Z,44.90
2018-03-24T12:46:36.555Z,45.30
2018-03-24T12:47:37.955Z,45.50
2018-03-24T12:48:40.127Z,45.60
2018-03-24T12:49:41.891Z,44.60
2018-03-24T12:52:28.609Z,45.00
2018-03-24T12:54:33.141Z,44.10
2018-03-24T12:55:34.519Z,44.30
2018-03-24T12:56:36.698Z,44.10
2018-03-24T12:57:38.106Z,44.10
2018-03-24T13:00:28.134Z,43.30
2018-03-24T13:04:40.086Z,43.70
2018-03-24T13:06:44.641Z,43.70
2018-03-24T13:07:47.553Z,44.00
2018-03-24T13:08:48.977Z,44.20
2018-03-24T13:10:29.835Z,44.20
2018-03-24T13:11:31.241Z,44.20
2018-03-24T13:12:32.653Z,43.90
2018-03-24T13:13:35.571Z,43.20
2018-03-24T13:14:36.977Z,43.60
2018-03-24T13:15:38.422Z,43.40
2018-03-24T13:16:39.813Z,43.70
2018-03-24T13:17:42.140Z,43.90
2018-03-24T13:19:46.727Z,44.40
2018-03-24T13:20:48.103Z,43.90
2018-03-24T13:21:49.503Z,44.20
2018-03-24T13:23:55.185Z,43.70
2018-03-24T13:24:56.595Z,43.80
2018-03-24T13:25:58.004Z,43.90
2018-03-24T13:26:59.423Z,43.50
2018-03-24T13:28:00.813Z,43.60
2018-03-24T13:29:03.008Z,43.90
2018-03-24T13:30:05.211Z,42.80
2018-03-24T13:31:06.979Z,43.30
2018-03-24T13:32:08.387Z,43.60
2018-03-24T13:33:09.791Z,43.90
2018-03-24T13:34:11.568Z,44.10
2018-03-24T13:35:13.724Z,43.80
2018-03-24T13:36:15.121Z,43.60
2018-03-24T13:37:16.545Z,43.40
2018-03-24T13:39:21.055Z,44.40
2018-03-24T13:40:22.473Z,44.50
2018-03-24T13:43:10.985Z,43.80
2018-03-24T13:44:12.398Z,43.70
2018-03-24T13:45:13.837Z,43.70
2018-03-24T13:46:15.261Z,43.90
2018-03-24T13:47:16.686Z,43.70
2018-03-24T13:48:18.799Z,43.70
2018-03-24T13:49:20.955Z,42.90
2018-03-24T13:50:22.370Z,43.30
2018-03-24T13:51:23.769Z,43.80
2018-03-24T13:52:25.927Z,44.10
2018-03-24T13:53:27.333Z,43.80
2018-03-24T13:54:28.771Z,44.00
2018-03-24T13:55:30.496Z,43.60
2018-03-24T13:56:32.643Z,43.90
2018-03-24T13:57:34.807Z,43.30
2018-03-24T13:58:36.231Z,43.60
2018-03-24T13:59:37.620Z,43.30
2018-03-24T14:00:39.045Z,43.40
2018-03-24T14:01:40.466Z,43.20
2018-03-24T14:02:42.608Z,43.50
2018-03-24T14:03:44.056Z,43.20
2018-03-24T14:06:03.045Z,43.60
2018-03-24T14:07:04.453Z,43.70
2018-03-24T14:08:07.355Z,44.20
2018-03-24T14:09:08.750Z,44.40
2018-03-24T14:10:10.151Z,44.20
2018-03-24T14:11:12.551Z,43.40
2018-03-24T14:12:13.954Z,43.50
2018-03-24T14:13:15.363Z,43.40
2018-03-24T14:14:16.821Z,43.20
2018-03-24T14:15:18.258Z,43.30
2018-03-24T14:16:19.696Z,43.10
2018-03-24T14:17:21.842Z,43.90
2018-03-24T14:18:23.243Z,43.70
2018-03-24T14:19:24.662Z,43.00
2018-03-24T14:20:27.173Z,42.80
2018-03-24T14:21:28.607Z,43.50
2018-03-24T14:22:30.015Z,43.50
2018-03-24T14:23:31.417Z,43.40
2018-03-24T14:24:32.805Z,43.50
2018-03-24T14:25:34.217Z,43.10
2018-03-24T14:26:35.910Z,43.20
2018-03-24T14:27:37.319Z,43.30
2018-03-24T14:28:39.825Z,43.10
2018-03-24T14:31:12.415Z,43.20
2018-03-24T14:32:13.833Z,43.40
2018-03-24T14:33:15.241Z,43.10
2018-03-24T14:34:16.667Z,43.00
2018-03-24T14:35:18.807Z,43.00
2018-03-24T14:36:20.223Z,43.10
2018-03-24T14:37:21.654Z,42.90
2018-03-24T14:39:26.228Z,43.60
2018-03-24T14:40:27.655Z,44.00
2018-03-24T14:42:32.239Z,43.30
2018-03-24T14:43:35.125Z,42.60
2018-03-24T14:44:37.299Z,42.80
2018-03-24T14:45:38.729Z,42.80
2018-03-24T14:46:40.167Z,43.10
2018-03-24T14:47:42.329Z,43.00
2018-03-24T14:48:43.804Z,43.10
2018-03-24T14:49:45.201Z,43.60
2018-03-24T14:50:46.610Z,43.60
2018-03-24T14:51:48.018Z,43.60
2018-03-24T14:52:49.527Z,43.50
2018-03-24T14:53:52.377Z,43.70
2018-03-24T14:54:55.298Z,43.50
2018-03-24T14:56:59.849Z,43.70
2018-03-24T14:59:04.431Z,43.80
2018-03-24T15:02:12.778Z,43.40
2018-03-24T15:03:14.255Z,43.40
2018-03-24T15:04:15.667Z,43.60
2018-03-24T15:05:17.117Z,43.50
2018-03-24T15:06:18.559Z,43.70
2018-03-24T15:09:27.765Z,42.70
2018-03-24T15:10:29.189Z,43.10
2018-03-24T15:11:30.645Z,42.60
2018-03-24T15:12:32.075Z,42.50
2018-03-24T15:13:33.825Z,42.50
2018-03-24T15:14:36.044Z,42.90
2018-03-24T15:15:38.191Z,43.00
2018-03-24T15:16:39.611Z,42.60
2018-03-24T15:17:41.878Z,42.50
2018-03-24T15:18:43.301Z,42.50
2018-03-24T15:19:44.717Z,42.70
2018-03-24T15:20:46.855Z,42.80
2018-03-24T15:21:48.306Z,43.20
2018-03-24T15:22:50.497Z,43.10
2018-03-24T15:23:53.395Z,43.30
2018-03-24T15:24:54.821Z,43.40
2018-03-24T15:25:57.735Z,43.30
2018-03-24T15:27:00.661Z,43.50
2018-03-24T15:29:23.527Z,43.10
2018-03-24T15:30:43.269Z,43.10
2018-03-24T15:32:03.076Z,43.20
2018-03-24T15:33:22.933Z,43.00
2018-03-24T15:34:42.803Z,42.70
2018-03-24T15:36:02.636Z,42.70
2018-03-24T15:39:10.335Z,42.90
2018-03-24T15:40:12.718Z,43.10
2018-03-24T15:41:14.898Z,43.80
2018-03-24T15:43:19.442Z,43.60
2018-03-24T15:44:21.611Z,43.50
2018-03-24T15:45:23.031Z,43.10
2018-03-24T15:46:24.477Z,43.10
2018-03-24T15:47:25.894Z,42.60
2018-03-24T15:48:27.410Z,42.60
2018-03-24T15:49:28.878Z,42.90
2018-03-24T15:50:30.293Z,42.80
2018-03-24T15:51:31.701Z,42.50
2018-03-24T15:53:36.979Z,43.30
2018-03-24T15:54:38.395Z,42.90
2018-03-24T15:55:39.868Z,43.00
2018-03-24T15:56:42.204Z,43.10
2018-03-24T15:57:45.124Z,42.70
2018-03-24T15:58:48.046Z,42.90
2018-03-24T15:59:49.466Z,43.00
2018-03-24T16:00:51.161Z,42.90
2018-03-24T16:01:52.601Z,42.80
2018-03-24T16:03:57.184Z,42.30
2018-03-24T16:04:58.594Z,42.30
2018-03-24T16:06:00.051Z,42.40
2018-03-24T16:07:02.997Z,42.60
2018-03-24T16:08:04.467Z,42.80
2018-03-24T16:09:06.655Z,42.80
2018-03-24T16:11:12.310Z,41.70
2018-03-24T16:12:13.750Z,42.00
2018-03-24T16:13:15.197Z,42.10
2018-03-24T16:14:16.626Z,42.40
2018-03-24T16:17:24.334Z,42.80
2018-03-24T16:18:25.754Z,42.70
2018-03-24T16:19:27.184Z,42.90
2018-03-24T16:22:34.870Z,43.10
2018-03-24T16:23:36.296Z,42.80
2018-03-24T16:24:38.454Z,43.10
2018-03-24T16:25:39.862Z,42.70
2018-03-24T16:26:41.546Z,42.80